Lindsborg, KS (67456)

1:10 AM CST on February 07, 2016 (GMT -0600)
APRSWXNET | | Change Station
CLOSE
Current Station
Personal Weather Station
Location: Lindsborg, KS
Elevation: 1318 ft
Nearby Weather Stations

Elev 1318 ft 38.59 °N, 97.61 °W | Updated 34 minutes ago

Clear
Clear
36 °F
Feels Like 36 °F
N
1
Wind Variable Wind from North
Gusts 5.0 mph

Today
High -- | Low -- °F
--% Chance of Precip.
Yesterday
High -- | Low -- °F
Precip. -- in
Pressure 30.04 in
Visibility 10.0 miles
Clouds Clear
Windchill 36 °F
Dew Point 26 °F
Humidity 67%
Rainfall in
Snow Depth Not available.
7:31 AM 5:59 PM
Waning Crescent, 2% visible
METAR KSLN 070653Z 20014KT 10SM CLR 04/M06 A3003 RMK AO2 SLP171 T00441056
Pressure 30.04 in
Visibility 10.0 miles
Clouds Clear
Windchill 36 °F
Dew Point 26 °F
Humidity 67%
Rainfall in
Snow Depth Not available.
7:31 AM 5:59 PM
Waning Crescent, 2% visible
METAR KSLN 070653Z 20014KT 10SM CLR 04/M06 A3003 RMK AO2 SLP171 T00441056

10-Day Weather Forecast

Almanac

Astronomy

Feb. 07, 2016 Rise Set
Actual Time
Civil Twilight
Nautical Twilight
Astronomical Twilight
Moon
Length of Visible Light
Length of Day
Tomorrow will be .
, % of the Moon is Illuminated

Today's Extremes

State Highs State Lows

Community

WunderPhotos

Upload Photos

1,891,174 photos uploaded!

WunderBlog® & News

Nearby

Air Quality

  Air Quality AQ Index Pollutant
Not available.

Snow Depth

Station Depth Elevation

Earthquake Activity

City Distance Mag. Time & Date
Minimum magnitude displayed is 2.5.

Coastal Water Temperatures

Place Temperature

Stations

Nearby Weather Stations

Station Location Temp. Windchill Dew Point Humidity Wind Precip. Elev Updated Type
                   

Watches & Warnings

There are currently no watches in effect.